Time;durP1;ratioP1;P1;durP2;ratioP2;P2;SDS_P1;SDS_P2;PMS_P1;PMS_P2;Temp;Humidity;BMP_temperature;BMP_pressure;BME280_temperature;BME280_humidity;BME280_pressure;Samples;Min_cycle;Max_cycle;Signal;HPM_P1;HPM_P2
2023/09/03 00:02:26;;;;;;;12.57;9.50;;;13.80;99.90;;;;;;5055064;28;20507;-72
2023/09/03 00:04:52;;;;;;;10.02;7.07;;;13.80;99.90;;;;;;5055372;28;20408;-73
2023/09/03 00:07:18;;;;;;;10.27;7.07;;;13.70;99.90;;;;;;5055178;28;20044;-74
2023/09/03 00:09:44;;;;;;;8.10;5.65;;;13.70;99.90;;;;;;5055023;28;20052;-73
2023/09/03 00:12:13;;;;;;;7.97;6.20;;;13.70;99.90;;;;;;5055501;28;20044;-72
2023/09/03 00:14:42;;;;;;;8.43;6.90;;;13.70;99.90;;;;;;5039303;28;20032;-73
2023/09/03 00:17:14;;;;;;;10.02;6.53;;;13.60;99.90;;;;;;5022490;28;20037;-72
2023/09/03 00:19:49;;;;;;;8.40;5.60;;;13.60;99.90;;;;;;5039631;28;20088;-74
2023/09/03 00:22:15;;;;;;;8.05;5.15;;;13.60;99.90;;;;;;5038123;28;20048;-73
2023/09/03 00:24:42;;;;;;;8.18;5.22;;;13.60;99.90;;;;;;5055129;28;20089;-71
2023/09/03 00:27:08;;;;;;;8.30;5.40;;;13.60;99.90;;;;;;5038483;28;20078;-72
2023/09/03 00:29:36;;;;;;;7.28;4.65;;;13.50;99.90;;;;;;5054797;28;20079;-71
2023/09/03 00:32:03;;;;;;;7.10;5.10;;;13.60;99.90;;;;;;5055185;28;20036;-72
2023/09/03 00:34:32;;;;;;;8.30;5.18;;;13.50;99.90;;;;;;5054919;28;20153;-73
2023/09/03 00:36:59;;;;;;;7.15;5.00;;;13.50;99.90;;;;;;5039031;28;20036;-72
2023/09/03 00:39:25;;;;;;;7.20;4.90;;;13.60;99.90;;;;;;5038239;28;20045;-71
2023/09/03 00:41:51;;;;;;;7.07;4.68;;;13.50;99.90;;;;;;5055151;28;20040;-71
2023/09/03 00:44:17;;;;;;;7.25;4.70;;;13.40;99.90;;;;;;5038559;28;20079;-71
2023/09/03 00:46:46;;;;;;;8.52;6.40;;;13.40;99.90;;;;;;5054725;28;20044;-72
2023/09/03 00:49:17;;;;;;;7.93;5.32;;;13.40;99.90;;;;;;5054827;28;20047;-71
2023/09/03 00:51:45;;;;;;;6.85;4.88;;;13.30;99.90;;;;;;5038730;28;20057;-73
2023/09/03 00:54:13;;;;;;;6.82;4.82;;;13.30;99.90;;;;;;5038130;28;20063;-72
2023/09/03 00:56:41;;;;;;;7.68;5.43;;;13.30;99.90;;;;;;5054751;28;20076;-73
2023/09/03 00:59:10;;;;;;;6.28;4.55;;;13.30;99.90;;;;;;5055293;28;20481;-65
2023/09/03 01:01:39;;;;;;;8.30;6.82;;;13.30;99.90;;;;;;5054381;28;20520;-65
2023/09/03 01:04:06;;;;;;;8.90;6.50;;;13.20;99.90;;;;;;5054776;28;20032;-65
2023/09/03 01:06:35;;;;;;;9.35;7.50;;;13.20;99.90;;;;;;5037458;28;20078;-65
2023/09/03 01:09:01;;;;;;;8.13;6.10;;;13.10;99.90;;;;;;5054812;28;20044;-65
2023/09/03 01:12:08;;;;;;;9.38;6.70;;;13.10;99.90;;;;;;5054814;28;20098;-65
2023/09/03 01:14:40;;;;;;;6.82;5.30;;;13.00;99.90;;;;;;5058277;28;20443;-65
2023/09/03 01:17:18;;;;;;;8.73;6.70;;;13.00;99.90;;;;;;5041625;28;20120;-65
2023/09/03 01:20:09;;;;;;;7.32;4.80;;;13.00;99.90;;;;;;5057972;28;20048;-65
2023/09/03 01:22:59;;;;;;;10.10;8.13;;;12.90;99.90;;;;;;5037836;28;20053;-64
2023/09/03 01:25:50;;;;;;;10.25;6.60;;;12.90;99.90;;;;;;5054550;28;20094;-64
2023/09/03 01:28:46;;;;;;;7.13;5.30;;;12.80;99.90;;;;;;5054450;28;20057;-65
2023/09/03 01:31:22;;;;;;;7.72;5.85;;;12.80;99.90;;;;;;5054764;28;20033;-65
2023/09/03 01:33:49;;;;;;;7.13;5.28;;;12.80;99.90;;;;;;5054769;28;20482;-65
2023/09/03 01:36:24;;;;;;;7.30;5.75;;;12.80;99.90;;;;;;5037797;28;20127;-66
2023/09/03 01:38:50;;;;;;;6.65;4.65;;;12.80;99.90;;;;;;5022923;28;20041;-64
2023/09/03 01:41:20;;;;;;;7.43;4.88;;;12.80;99.90;;;;;;5054390;28;20041;-65
2023/09/03 01:43:52;;;;;;;9.80;4.90;;;12.80;99.90;;;;;;5005143;28;20532;-66
2023/09/03 01:46:37;;;;;;;;;;;12.80;99.90;;;;;;5054652;28;20049;-64
2023/09/03 01:49:30;;;;;;;9.18;6.70;;;12.80;99.90;;;;;;5054108;28;20000;-65
2023/09/03 01:52:25;;;;;;;;;;;12.80;99.90;;;;;;5054694;28;20033;-64
2023/09/03 01:54:53;;;;;;;7.43;5.45;;;12.80;99.90;;;;;;5045534;28;19916;-66
2023/09/03 01:57:30;;;;;;;6.80;5.00;;;12.70;99.90;;;;;;5037775;28;20041;-64
2023/09/03 02:00:00;;;;;;;7.70;5.00;;;12.70;99.90;;;;;;5054265;28;20094;-65
2023/09/03 02:02:28;;;;;;;6.85;5.35;;;12.70;99.90;;;;;;5037778;28;20041;-66
2023/09/03 02:04:54;;;;;;;7.28;4.43;;;12.80;99.90;;;;;;5055040;28;20053;-65
2023/09/03 02:07:21;;;;;;;8.48;5.10;;;12.70;99.90;;;;;;5054309;28;20102;-71
2023/09/03 02:09:50;;;;;;;6.90;4.90;;;12.80;99.90;;;;;;5038900;28;20455;-71
2023/09/03 02:12:23;;;;;;;7.15;4.70;;;12.80;99.90;;;;;;5057234;28;20041;-72
2023/09/03 02:14:50;;;;;;;6.80;4.68;;;12.80;99.90;;;;;;5058222;28;20040;-71
2023/09/03 02:17:19;;;;;;;6.32;4.60;;;12.80;99.90;;;;;;5059413;28;20051;-72
2023/09/03 02:19:49;;;;;;;6.75;4.88;;;12.70;99.90;;;;;;5028929;28;20068;-72
2023/09/03 02:22:16;;;;;;;6.57;4.63;;;12.70;99.90;;;;;;5045815;28;20552;-72
2023/09/03 02:24:42;;;;;;;6.05;4.13;;;12.70;99.90;;;;;;5062949;28;20084;-72
2023/09/03 02:27:08;;;;;;;6.35;4.13;;;12.70;99.90;;;;;;5048813;28;20049;-71
2023/09/03 02:29:35;;;;;;;6.93;5.18;;;12.70;99.90;;;;;;5071697;28;20086;-71
2023/09/03 02:32:01;;;;;;;8.82;6.00;;;12.70;99.90;;;;;;5074662;28;20041;-70
2023/09/03 02:34:26;;;;;;;6.57;4.68;;;12.70;99.90;;;;;;5055921;28;20041;-72
2023/09/03 02:36:52;;;;;;;6.20;4.28;;;12.60;99.90;;;;;;5073505;28;20044;-72
2023/09/03 02:39:21;;;;;;;6.35;3.97;;;12.60;99.90;;;;;;5069049;28;20049;-72
2023/09/03 02:41:47;;;;;;;6.40;4.05;;;12.60;99.90;;;;;;5049626;28;20068;-73
2023/09/03 02:44:13;;;;;;;6.63;4.20;;;12.60;99.90;;;;;;5048250;28;20090;-69
2023/09/03 02:46:39;;;;;;;7.07;4.43;;;12.60;99.90;;;;;;5049981;28;20155;-72
2023/09/03 02:49:04;;;;;;;7.75;4.25;;;12.60;99.90;;;;;;5067288;28;20055;-72
2023/09/03 02:51:32;;;;;;;11.70;8.55;;;12.50;99.90;;;;;;5066769;28;20575;-73
2023/09/03 02:53:57;;;;;;;7.45;5.55;;;12.50;99.90;;;;;;5067092;28;20037;-73
2023/09/03 02:56:27;;;;;;;8.80;6.43;;;12.40;99.90;;;;;;5067355;28;20107;-71
2023/09/03 02:58:53;;;;;;;8.30;6.70;;;12.40;99.90;;;;;;5067220;28;20052;-72
2023/09/03 03:01:28;;;;;;;9.82;7.50;;;12.30;99.90;;;;;;5066984;28;20040;-71
2023/09/03 03:03:55;;;;;;;14.15;10.57;;;12.30;99.90;;;;;;5079992;28;20048;-73
2023/09/03 03:06:20;;;;;;;6.45;4.55;;;12.30;99.90;;;;;;5062371;28;20037;-72
2023/09/03 03:08:46;;;;;;;7.50;5.65;;;12.20;99.90;;;;;;5046862;28;20052;-70
2023/09/03 03:11:16;;;;;;;7.40;4.40;;;12.30;99.90;;;;;;5044192;28;20037;-72
2023/09/03 03:13:47;;;;;;;6.53;4.60;;;12.30;99.90;;;;;;5042113;28;20375;-72
2023/09/03 03:16:15;;;;;;;7.13;4.40;;;12.30;99.90;;;;;;5024905;28;20052;-71
2023/09/03 03:18:43;;;;;;;6.22;4.53;;;12.30;99.90;;;;;;5053227;28;20045;-65
2023/09/03 03:21:19;;;;;;;6.10;4.22;;;12.20;99.90;;;;;;5052715;28;20103;-66
2023/09/03 03:23:47;;;;;;;7.57;4.43;;;12.30;99.90;;;;;;5035720;28;20164;-65
2023/09/03 03:26:13;;;;;;;5.68;4.03;;;12.30;99.90;;;;;;5036198;28;20052;-65
2023/09/03 03:28:42;;;;;;;5.70;4.00;;;12.30;99.90;;;;;;5035863;28;20489;-66
2023/09/03 03:31:12;;;;;;;6.65;5.35;;;12.20;99.90;;;;;;5035698;28;20091;-64
2023/09/03 03:33:39;;;;;;;7.85;6.35;;;12.20;99.90;;;;;;5019578;28;20064;-63
2023/09/03 03:36:16;;;;;;;7.63;5.82;;;12.20;99.90;;;;;;5035454;28;20107;-65
2023/09/03 03:38:43;;;;;;;8.15;7.03;;;12.10;99.90;;;;;;5052087;28;20063;-64
2023/09/03 03:41:11;;;;;;;6.03;4.65;;;12.10;99.90;;;;;;5052108;28;20049;-65
2023/09/03 03:43:38;;;;;;;6.15;4.47;;;12.00;99.90;;;;;;5052066;28;20056;-66
2023/09/03 03:46:05;;;;;;;6.43;4.43;;;12.00;99.90;;;;;;5052301;28;20049;-66
2023/09/03 03:48:42;;;;;;;7.57;4.50;;;12.00;99.90;;;;;;5067931;28;20512;-65
2023/09/03 03:51:08;;;;;;;7.97;6.03;;;12.00;99.90;;;;;;5051971;28;20072;-65
2023/09/03 03:53:43;;;;;;;7.40;6.28;;;12.00;99.90;;;;;;5035370;28;20045;-64
2023/09/03 03:56:10;;;;;;;12.68;10.25;;;12.00;99.90;;;;;;5035511;28;20493;-66
2023/09/03 03:58:43;;;;;;;7.40;4.93;;;11.90;99.90;;;;;;5052213;28;20416;-65
2023/09/03 04:01:17;;;;;;;6.63;4.30;;;11.80;99.90;;;;;;5035605;28;20032;-64
2023/09/03 04:03:45;;;;;;;6.32;4.70;;;11.80;99.90;;;;;;5036172;28;20037;-65
2023/09/03 04:06:17;;;;;;;5.78;4.40;;;11.80;99.90;;;;;;5051696;28;20041;-65
2023/09/03 04:08:44;;;;;;;6.18;4.35;;;11.80;99.90;;;;;;5051540;28;20045;-65
2023/09/03 04:11:11;;;;;;;5.90;4.15;;;11.80;99.90;;;;;;5052087;28;20028;-64
2023/09/03 04:13:38;;;;;;;8.18;4.40;;;11.80;99.90;;;;;;5051939;28;20154;-65
2023/09/03 04:16:16;;;;;;;5.88;3.97;;;11.80;99.90;;;;;;5051640;28;20098;-65
2023/09/03 04:18:44;;;;;;;6.20;4.10;;;11.80;99.90;;;;;;5051689;28;20087;-65
2023/09/03 04:21:16;;;;;;;5.50;3.90;;;11.80;99.90;;;;;;5051891;28;20048;-64
2023/09/03 04:23:43;;;;;;;6.47;4.10;;;11.80;99.90;;;;;;5069708;28;20049;-64
2023/09/03 04:26:12;;;;;;;7.65;5.60;;;11.80;99.90;;;;;;5055191;28;20508;-65
2023/09/03 04:28:41;;;;;;;7.72;6.63;;;11.80;99.90;;;;;;5054909;28;20040;-64
2023/09/03 04:31:10;;;;;;;7.45;5.90;;;11.80;99.90;;;;;;5039423;28;20123;-65
2023/09/03 04:33:36;;;;;;;9.10;6.72;;;11.80;99.90;;;;;;5054765;28;20125;-65
2023/09/03 04:36:03;;;;;;;8.30;6.55;;;11.80;99.90;;;;;;5072902;28;20377;-65
2023/09/03 04:38:30;;;;;;;6.63;4.93;;;11.70;99.90;;;;;;5055153;28;20048;-65
2023/09/03 04:41:05;;;;;;;7.15;5.35;;;11.70;99.90;;;;;;5038615;28;20049;-64
2023/09/03 04:43:32;;;;;;;6.80;4.97;;;11.70;99.90;;;;;;5021938;28;20032;-64
2023/09/03 04:45:59;;;;;;;8.82;6.70;;;11.60;99.90;;;;;;5054683;28;20044;-65
2023/09/03 04:48:25;;;;;;;6.30;4.40;;;11.60;99.90;;;;;;5056721;28;20140;-66
2023/09/03 04:51:04;;;;;;;8.05;6.63;;;11.60;99.90;;;;;;5043498;28;20492;-65
2023/09/03 04:53:33;;;;;;;8.60;6.53;;;11.60;99.90;;;;;;5058557;28;20087;-66
2023/09/03 04:56:01;;;;;;;7.88;6.45;;;11.60;99.90;;;;;;5058407;28;20080;-66
2023/09/03 04:58:27;;;;;;;9.13;7.55;;;11.60;99.90;;;;;;5058746;28;20071;-68
2023/09/03 05:00:56;;;;;;;6.63;5.25;;;11.60;99.90;;;;;;5042439;28;20041;-66
2023/09/03 05:03:25;;;;;;;8.40;6.15;;;11.60;99.90;;;;;;5041989;28;20040;-66
2023/09/03 05:05:50;;;;;;;9.38;7.85;;;11.60;99.90;;;;;;5058348;28;20079;-65
2023/09/03 05:08:16;;;;;;;10.50;6.63;;;11.60;99.90;;;;;;5058598;28;20075;-66
2023/09/03 05:10:43;;;;;;;8.93;7.18;;;11.60;99.90;;;;;;5058387;28;20048;-65
2023/09/03 05:13:09;;;;;;;8.25;6.10;;;11.70;99.90;;;;;;5058613;28;20055;-65
2023/09/03 05:15:36;;;;;;;8.05;6.70;;;11.70;99.90;;;;;;5041746;28;20047;-66
2023/09/03 05:18:02;;;;;;;9.60;6.82;;;11.70;99.90;;;;;;5075062;28;20028;-65
2023/09/03 05:20:28;;;;;;;9.20;7.55;;;11.70;99.90;;;;;;5041441;28;20055;-65
2023/09/03 05:22:54;;;;;;;7.63;6.25;;;11.70;99.90;;;;;;5054507;28;20479;-66
2023/09/03 05:25:21;;;;;;;8.68;6.90;;;11.60;99.90;;;;;;5038044;28;20053;-64
2023/09/03 05:27:46;;;;;;;7.70;6.60;;;11.60;99.90;;;;;;5054516;28;20048;-65
2023/09/03 05:30:12;;;;;;;9.50;7.30;;;11.60;99.90;;;;;;5055815;28;20044;-65
2023/09/03 05:32:38;;;;;;;9.02;7.13;;;11.60;99.90;;;;;;5038048;28;20044;-65
2023/09/03 05:35:05;;;;;;;9.98;7.90;;;11.60;99.90;;;;;;5038143;28;20060;-64
2023/09/03 05:37:30;;;;;;;8.30;7.35;;;11.60;99.90;;;;;;5054645;28;20041;-65
2023/09/03 05:39:56;;;;;;;8.77;6.82;;;11.60;99.90;;;;;;5021201;28;20052;-64
2023/09/03 05:42:22;;;;;;;9.10;7.28;;;11.50;99.90;;;;;;5054606;28;20041;-65
2023/09/03 05:44:48;;;;;;;9.32;7.57;;;11.60;99.90;;;;;;5054246;28;20104;-65
2023/09/03 05:47:18;;;;;;;10.20;8.57;;;11.60;99.90;;;;;;5054189;28;20230;-65
2023/09/03 05:49:45;;;;;;;10.25;9.00;;;11.70;99.90;;;;;;5038227;28;20127;-65
2023/09/03 05:52:11;;;;;;;10.60;9.35;;;11.70;99.90;;;;;;5054474;28;20099;-64
2023/09/03 05:54:38;;;;;;;12.57;10.27;;;11.80;99.90;;;;;;5037583;28;20076;-65
2023/09/03 05:57:04;;;;;;;12.07;10.57;;;11.90;99.90;;;;;;5070857;28;20116;-65
2023/09/03 05:59:29;;;;;;;15.07;12.73;;;12.10;99.90;;;;;;5036184;28;20132;-65
2023/09/03 06:01:57;;;;;;;15.63;13.52;;;12.20;99.90;;;;;;5037351;28;20139;-64
2023/09/03 06:04:23;;;;;;;18.45;15.82;;;12.30;99.90;;;;;;5053900;28;20041;-65
2023/09/03 06:06:48;;;;;;;16.98;14.73;;;12.40;99.90;;;;;;5037503;28;20041;-64
2023/09/03 06:09:18;;;;;;;22.20;17.63;;;12.60;99.90;;;;;;5020723;28;20553;-65
2023/09/03 06:11:46;;;;;;;18.27;15.88;;;12.90;99.90;;;;;;5053903;28;20469;-66
2023/09/03 06:14:16;;;;;;;16.60;14.68;;;13.30;99.90;;;;;;5038180;28;20032;-65
2023/09/03 06:16:42;;;;;;;14.20;12.38;;;13.60;99.90;;;;;;5037176;28;20068;-65
2023/09/03 06:19:08;;;;;;;13.13;11.73;;;13.70;99.90;;;;;;5053619;28;20512;-64
2023/09/03 06:21:33;;;;;;;17.30;13.07;;;13.80;99.90;;;;;;5053585;28;20538;-64
2023/09/03 06:23:59;;;;;;;15.55;13.32;;;14.10;99.90;;;;;;5053376;28;20135;-63
2023/09/03 06:26:25;;;;;;;14.88;12.65;;;14.40;99.90;;;;;;5055029;28;20051;-64
2023/09/03 06:28:51;;;;;;;16.00;13.43;;;14.90;99.90;;;;;;5053503;28;20041;-63
2023/09/03 06:31:16;;;;;;;13.27;11.57;;;15.30;99.90;;;;;;5053436;28;20045;-65
2023/09/03 06:33:43;;;;;;;13.18;11.18;;;15.70;99.90;;;;;;5037272;28;20041;-65
2023/09/03 06:36:09;;;;;;;11.00;9.80;;;16.00;99.90;;;;;;5053600;28;20120;-65
2023/09/03 06:38:35;;;;;;;10.25;9.00;;;16.40;99.90;;;;;;5053279;28;20145;-64
2023/09/03 06:41:01;;;;;;;11.82;9.30;;;16.60;99.90;;;;;;5053640;28;20087;-65
2023/09/03 06:43:27;;;;;;;11.57;9.63;;;16.90;99.90;;;;;;5036529;28;20106;-65
2023/09/03 06:45:56;;;;;;;10.90;9.30;;;17.00;99.90;;;;;;5054857;28;20073;-65
2023/09/03 06:48:22;;;;;;;11.32;9.45;;;17.10;99.90;;;;;;5053087;28;20041;-65
2023/09/03 06:50:48;;;;;;;12.32;9.75;;;17.30;99.90;;;;;;5053208;28;20043;-65
2023/09/03 06:53:14;;;;;;;11.35;9.18;;;17.70;99.90;;;;;;5036655;28;20045;-65
2023/09/03 06:55:43;;;;;;;9.98;8.20;;;17.70;99.90;;;;;;5036335;28;20045;-64
2023/09/03 06:58:12;;;;;;;10.73;8.38;;;17.70;99.90;;;;;;5036291;28;20049;-65
2023/09/03 07:00:38;;;;;;;11.15;8.23;;;17.90;99.90;;;;;;5052760;28;20048;-65
2023/09/03 07:03:07;;;;;;;11.15;8.40;;;18.30;99.90;;;;;;5036571;28;20043;-65
2023/09/03 07:05:33;;;;;;;9.90;8.05;;;18.80;99.90;;;;;;5052770;28;20041;-64
2023/09/03 07:08:02;;;;;;;10.95;8.10;;;19.20;99.90;;;;;;5036061;28;20056;-64
2023/09/03 07:10:28;;;;;;;9.68;7.75;;;19.40;99.90;;;;;;5035972;28;20416;-65
2023/09/03 07:12:55;;;;;;;10.25;7.45;;;19.60;99.90;;;;;;5035881;28;20120;-65
2023/09/03 07:15:20;;;;;;;9.10;7.35;;;20.20;99.90;;;;;;5036172;28;20041;-65
2023/09/03 07:17:46;;;;;;;8.57;5.32;;;20.90;99.90;;;;;;5036218;28;20037;-64
2023/09/03 07:20:12;;;;;;;9.85;5.88;;;21.40;99.90;;;;;;5035835;28;20047;-63
2023/09/03 07:22:38;;;;;;;9.48;6.30;;;21.90;99.90;;;;;;5052267;28;20060;-65
2023/09/03 07:25:12;;;;;;;8.77;5.35;;;22.00;99.90;;;;;;5053781;28;20048;-64
2023/09/03 07:27:39;;;;;;;8.93;5.80;;;22.30;99.90;;;;;;5052394;28;20045;-65
2023/09/03 07:30:08;;;;;;;7.60;5.20;;;22.40;99.90;;;;;;5036260;28;20523;-64
2023/09/03 07:32:36;;;;;;;7.78;5.18;;;22.50;99.90;;;;;;5052729;28;20501;-64
2023/09/03 07:35:06;;;;;;;7.47;5.13;;;22.50;99.90;;;;;;5019429;28;20036;-64
2023/09/03 07:37:32;;;;;;;7.47;3.40;;;22.30;99.90;;;;;;5052651;28;20045;-72
2023/09/03 07:39:58;;;;;;;6.80;3.40;;;22.30;99.90;;;;;;5035925;28;20041;-71
2023/09/03 07:42:28;;;;;;;6.63;4.03;;;22.70;99.90;;;;;;5019566;28;20048;-72
2023/09/03 07:44:54;;;;;;;8.77;4.70;;;22.70;99.90;;;;;;5052680;28;20044;-71
2023/09/03 07:47:20;;;;;;;7.18;3.55;;;23.00;99.90;;;;;;5036388;28;20052;-71
2023/09/03 07:49:46;;;;;;;5.28;2.65;;;22.90;99.90;;;;;;5052920;28;20385;-72
2023/09/03 07:52:12;;;;;;;5.78;2.65;;;23.30;99.90;;;;;;5035789;28;20040;-72
2023/09/03 07:54:39;;;;;;;6.40;2.28;;;23.10;99.90;;;;;;5052383;28;20095;-72
2023/09/03 07:57:05;;;;;;;6.75;3.00;;;23.60;99.90;;;;;;5036363;28;20055;-65
2023/09/03 07:59:31;;;;;;;5.63;2.67;;;23.20;99.90;;;;;;5052146;28;20084;-65
2023/09/03 08:02:01;;;;;;;6.80;2.55;;;23.20;99.90;;;;;;5035554;28;20041;-65
2023/09/03 08:04:28;;;;;;;6.43;2.20;;;23.30;99.90;;;;;;5035717;28;20119;-65
2023/09/03 08:06:58;;;;;;;5.35;2.25;;;23.10;99.90;;;;;;5052069;28;20037;-64
2023/09/03 08:09:27;;;;;;;6.72;2.20;;;22.90;99.90;;;;;;5034966;28;20052;-64
2023/09/03 08:11:53;;;;;;;5.28;2.55;;;22.40;99.90;;;;;;5035323;28;20045;-65
2023/09/03 08:14:20;;;;;;;7.80;2.58;;;22.10;99.90;;;;;;5051906;28;20040;-64
2023/09/03 08:16:46;;;;;;;7.93;2.60;;;21.90;99.90;;;;;;5051797;28;20041;-65
2023/09/03 08:19:11;;;;;;;6.95;2.60;;;21.70;99.90;;;;;;5035095;28;20052;-64
2023/09/03 08:21:37;;;;;;;6.95;2.45;;;21.50;99.90;;;;;;5051625;28;20047;-64
2023/09/03 08:24:04;;;;;;;6.30;2.35;;;21.70;99.90;;;;;;5038005;28;20061;-63
2023/09/03 08:26:34;;;;;;;6.18;2.30;;;21.50;99.90;;;;;;5024055;28;20131;-64
2023/09/03 08:29:00;;;;;;;5.03;2.20;;;21.20;99.90;;;;;;5039140;28;20175;-64
2023/09/03 08:31:25;;;;;;;6.53;2.67;;;21.30;99.90;;;;;;5039135;28;20545;-65
2023/09/03 08:33:53;;;;;;;5.82;2.53;;;21.40;99.90;;;;;;5039144;28;20037;-65
2023/09/03 08:36:28;;;;;;;7.10;3.25;;;21.40;99.90;;;;;;5055743;28;20094;-65
2023/09/03 08:38:57;;;;;;;7.75;3.35;;;21.40;99.90;;;;;;5056742;28;20045;-64
2023/09/03 08:41:23;;;;;;;5.63;2.92;;;21.40;99.90;;;;;;5055390;28;20041;-65
2023/09/03 08:43:55;;;;;;;6.57;2.80;;;21.50;99.90;;;;;;5054651;28;20053;-65
2023/09/03 08:46:25;;;;;;;6.32;2.65;;;21.40;99.90;;;;;;5055564;28;20074;-65
2023/09/03 08:48:54;;;;;;;8.70;3.20;;;21.50;99.90;;;;;;5056819;28;20038;-65
2023/09/03 08:51:25;;;;;;;6.80;3.70;;;21.60;99.90;;;;;;5055370;28;20048;-64
2023/09/03 08:53:52;;;;;;;7.05;3.70;;;22.00;99.90;;;;;;5055578;28;20547;-65
2023/09/03 08:56:18;;;;;;;6.80;3.83;;;22.00;99.90;;;;;;5038818;28;20497;-64
2023/09/03 08:58:44;;;;;;;6.90;3.63;;;22.10;99.90;;;;;;5055453;28;20071;-65
2023/09/03 09:01:10;;;;;;;7.28;3.20;;;22.30;99.90;;;;;;5056404;28;20037;-64
2023/09/03 09:03:38;;;;;;;6.80;3.00;;;22.30;99.90;;;;;;5055276;28;20497;-64
2023/09/03 09:06:06;;;;;;;6.07;3.00;;;22.40;99.90;;;;;;5055016;28;20044;-64
2023/09/03 09:08:33;;;;;;;5.38;2.40;;;22.10;99.90;;;;;;5055218;28;20421;-73
2023/09/03 09:11:04;;;;;;;6.50;2.90;;;22.10;99.90;;;;;;5055876;28;20044;-72
2023/09/03 09:13:35;;;;;;;5.50;2.70;;;22.20;99.90;;;;;;5055847;28;20048;-72
2023/09/03 09:16:01;;;;;;;6.68;2.95;;;22.20;99.90;;;;;;5055680;28;20033;-73
2023/09/03 09:18:27;;;;;;;5.40;2.20;;;22.20;99.90;;;;;;5072836;28;20040;-74
2023/09/03 09:20:57;;;;;;;4.97;2.20;;;22.40;99.90;;;;;;5039387;28;20405;-71
2023/09/03 09:23:26;;;;;;;5.00;2.20;;;22.60;99.90;;;;;;5056002;28;20057;-73
2023/09/03 09:26:00;;;;;;;6.35;2.50;;;22.70;99.90;;;;;;5055711;28;20041;-72
2023/09/03 09:28:37;;;;;;;5.32;2.30;;;22.70;99.90;;;;;;5052947;28;20580;-73
2023/09/03 09:31:03;;;;;;;5.78;2.10;;;22.40;99.90;;;;;;5039807;28;20057;-72
2023/09/03 09:33:29;;;;;;;5.18;1.95;;;22.10;99.90;;;;;;5055057;28;20037;-72
2023/09/03 09:36:12;;;;;;;5.10;2.00;;;22.00;99.90;;;;;;5039018;28;20100;-71
2023/09/03 09:38:39;;;;;;;4.35;1.88;;;21.80;99.90;;;;;;5038998;28;20064;-71
2023/09/03 09:41:22;;;;;;;4.50;1.70;;;21.90;99.90;;;;;;5022486;28;20056;-72
2023/09/03 09:43:47;;;;;;;5.63;1.80;;;22.10;99.90;;;;;;5058572;28;20378;-73
2023/09/03 09:46:34;;;;;;;5.07;2.17;;;22.30;99.90;;;;;;5055711;28;20124;-72
2023/09/03 09:49:08;;;;;;;4.63;1.90;;;22.30;99.90;;;;;;5055319;28;20036;-72
2023/09/03 09:51:34;;;;;;;5.18;2.00;;;22.30;99.90;;;;;;5038570;28;20408;-72
2023/09/03 09:54:15;;;;;;;5.45;2.20;;;22.30;99.90;;;;;;5055682;28;20041;-72
2023/09/03 09:56:42;;;;;;;4.70;2.30;;;22.10;99.90;;;;;;5055393;28;20124;-71
2023/09/03 09:59:11;;;;;;;5.05;1.88;;;22.20;99.90;;;;;;5055462;28;20283;-71
2023/09/03 10:01:45;;;;;;;6.05;2.25;;;22.30;99.90;;;;;;5055471;28;20078;-72
2023/09/03 10:04:11;;;;;;;4.97;2.30;;;22.40;99.90;;;;;;5055432;28;20041;-72
2023/09/03 10:06:40;;;;;;;4.43;1.90;;;22.40;99.90;;;;;;5056762;28;20048;-72
2023/09/03 10:09:08;;;;;;;4.57;1.90;;;22.60;99.90;;;;;;5039235;28;20037;-70
2023/09/03 10:11:36;;;;;;;5.30;1.80;;;22.70;99.90;;;;;;5039175;28;20044;-71
2023/09/03 10:14:02;;;;;;;4.88;1.70;;;22.70;99.90;;;;;;5039709;28;20037;-72
2023/09/03 10:16:30;;;;;;;5.18;2.17;;;22.70;99.90;;;;;;5039850;28;20071;-72
2023/09/03 10:18:59;;;;;;;4.95;1.88;;;22.80;99.90;;;;;;5055349;28;20064;-72
2023/09/03 10:21:27;;;;;;;4.30;1.70;;;22.90;99.90;;;;;;5071042;28;20045;-72
2023/09/03 10:23:58;;;;;;;4.90;1.70;;;22.90;99.90;;;;;;5049655;28;20057;-71
2023/09/03 10:26:40;;;;;;;3.85;1.63;;;23.00;99.90;;;;;;5066483;28;20123;-70
2023/09/03 10:29:08;;;;;;;4.75;1.60;;;22.90;99.90;;;;;;5068958;28;20037;-64
2023/09/03 10:31:36;;;;;;;5.78;1.67;;;22.80;99.90;;;;;;5053759;28;20128;-66
2023/09/03 10:34:10;;;;;;;4.10;1.60;;;22.80;99.90;;;;;;5037783;28;20116;-63
2023/09/03 10:36:36;;;;;;;4.63;1.80;;;22.80;99.90;;;;;;5053837;28;20128;-66
2023/09/03 10:39:25;;;;;;;4.10;1.60;;;22.90;99.90;;;;;;5053967;28;20076;-65
2023/09/03 10:42:29;;;;;;;5.30;1.85;;;23.10;99.70;;;;;;5054023;28;20041;-64
2023/09/03 10:44:57;;;;;;;3.90;1.52;;;23.10;99.90;;;;;;5049429;28;20132;-65
2023/09/03 10:47:24;;;;;;;4.60;1.67;;;23.30;99.90;;;;;;5052869;28;20063;-64
2023/09/03 10:49:51;;;;;;;4.65;1.52;;;23.50;99.60;;;;;;5036882;28;20080;-64
2023/09/03 10:52:34;;;;;;;4.55;1.50;;;23.30;99.70;;;;;;5053539;28;20043;-64
2023/09/03 10:55:20;;;;;;;4.90;1.70;;;23.20;98.90;;;;;;5053460;28;20453;-68
2023/09/03 10:58:16;;;;;;;3.50;1.50;;;23.30;99.90;;;;;;5053680;28;20393;-64
2023/09/03 11:01:26;;;;;;;4.30;1.60;;;23.30;99.70;;;;;;5053283;28;20098;-64
2023/09/03 11:03:53;;;;;;;4.47;1.60;;;23.20;98.50;;;;;;5046932;28;20053;-64
2023/09/03 11:06:24;;;;;;;4.07;1.40;;;22.90;98.10;;;;;;5036843;28;20045;-64
2023/09/03 11:08:59;;;;;;;4.82;1.70;;;22.90;97.90;;;;;;5052969;28;20041;-65
2023/09/03 11:11:28;;;;;;;4.30;1.67;;;23.10;98.60;;;;;;5054229;28;20122;-65
2023/09/03 11:13:55;;;;;;;4.40;1.58;;;23.10;98.30;;;;;;5069543;28;20076;-64
2023/09/03 11:16:40;;;;;;;3.85;1.40;;;23.10;98.50;;;;;;5053058;28;20393;-66
2023/09/03 11:19:09;;;;;;;3.45;1.40;;;23.10;97.30;;;;;;5052666;28;20128;-65
2023/09/03 11:21:40;;;;;;;4.72;1.63;;;23.00;97.00;;;;;;5052958;28;20044;-64
2023/09/03 11:24:16;;;;;;;4.05;1.40;;;23.00;98.00;;;;;;5052508;28;20106;-65
2023/09/03 11:26:44;;;;;;;4.55;1.60;;;23.20;98.00;;;;;;5008568;28;20048;-63
2023/09/03 11:29:24;;;;;;;4.47;1.50;;;23.40;98.70;;;;;;5031302;28;20076;-65
2023/09/03 11:31:51;;;;;;;3.75;1.60;;;23.50;97.40;;;;;;5052743;28;20514;-65
2023/09/03 11:34:24;;;;;;;4.75;1.70;;;23.60;97.40;;;;;;5052723;28;20036;-65
2023/09/03 11:37:03;;;;;;;5.75;1.75;;;23.70;98.00;;;;;;5019906;28;20037;-65
2023/09/03 11:39:30;;;;;;;4.90;1.73;;;23.70;97.10;;;;;;5036206;28;20128;-66
2023/09/03 11:41:56;;;;;;;4.47;1.65;;;23.50;97.40;;;;;;5052070;28;20040;-66
2023/09/03 11:44:23;;;;;;;4.65;1.67;;;23.50;96.40;;;;;;5052286;28;20123;-65
2023/09/03 11:47:00;;;;;;;4.50;1.60;;;23.30;96.30;;;;;;5051801;28;20049;-65
2023/09/03 11:49:26;;;;;;;5.15;2.05;;;23.40;97.20;;;;;;5051893;28;20099;-65
2023/09/03 11:51:53;;;;;;;4.72;1.70;;;23.40;96.70;;;;;;5035324;28;20041;-65
2023/09/03 11:54:23;;;;;;;4.40;1.80;;;23.40;97.70;;;;;;5052233;28;20036;-66
2023/09/03 11:56:49;;;;;;;4.35;1.83;;;23.30;96.50;;;;;;5035422;28;20508;-65
2023/09/03 11:59:15;;;;;;;5.53;1.65;;;23.40;97.40;;;;;;5051919;28;20049;-65
2023/09/03 12:01:47;;;;;;;5.13;1.88;;;23.50;97.60;;;;;;5052016;28;20044;-64
2023/09/03 12:04:13;;;;;;;4.47;1.70;;;23.50;96.80;;;;;;5035969;28;20048;-65
2023/09/03 12:06:41;;;;;;;5.68;1.67;;;23.50;97.00;;;;;;5051831;28;20041;-65
2023/09/03 12:09:08;;;;;;;4.40;1.60;;;23.60;97.20;;;;;;5053066;28;20045;-64
2023/09/03 12:11:34;;;;;;;4.88;1.85;;;23.50;96.40;;;;;;5051820;28;20043;-66
2023/09/03 12:14:00;;;;;;;4.45;1.70;;;23.50;96.60;;;;;;5035391;28;20045;-64
2023/09/03 12:16:29;;;;;;;5.43;1.90;;;23.60;97.20;;;;;;5035141;28;20393;-64
2023/09/03 12:18:57;;;;;;;5.97;1.77;;;23.50;96.50;;;;;;5019031;28;20049;-63
2023/09/03 12:21:33;;;;;;;4.88;1.77;;;23.50;96.10;;;;;;5053279;28;20033;-64
2023/09/03 12:24:03;;;;;;;4.68;1.63;;;23.50;94.40;;;;;;5051588;28;20090;-64
2023/09/03 12:26:29;;;;;;;3.72;1.55;;;23.50;96.30;;;;;;5051866;28;20048;-62
2023/09/03 12:29:00;;;;;;;3.85;1.60;;;23.30;95.90;;;;;;5035071;28;20056;-65
2023/09/03 12:31:44;;;;;;;4.85;1.67;;;23.40;96.10;;;;;;5052783;28;20037;-63
2023/09/03 12:34:10;;;;;;;3.92;1.70;;;23.30;95.80;;;;;;5052795;28;20033;-62
2023/09/03 12:36:56;;;;;;;4.15;1.70;;;23.40;95.60;;;;;;5051824;28;20037;-63
2023/09/03 12:39:32;;;;;;;5.00;1.52;;;23.40;96.70;;;;;;5051481;28;20045;-64
2023/09/03 12:41:59;;;;;;;5.53;1.80;;;23.40;96.80;;;;;;5034841;28;20098;-64
2023/09/03 12:44:26;;;;;;;3.65;1.80;;;23.50;96.80;;;;;;5051480;28;20037;-63
2023/09/03 12:46:53;;;;;;;4.70;1.90;;;23.50;96.80;;;;;;5051435;28;20036;-63
2023/09/03 12:49:21;;;;;;;4.90;1.70;;;23.50;95.90;;;;;;5052408;28;20045;-63
2023/09/03 12:51:48;;;;;;;3.60;1.70;;;23.50;96.10;;;;;;5035271;28;20033;-63
2023/09/03 12:54:27;;;;;;;5.85;1.50;;;23.60;97.10;;;;;;5051318;28;20041;-64
2023/09/03 12:56:56;;;;;;;4.32;1.58;;;23.80;97.10;;;;;;5051609;28;20041;-64
2023/09/03 12:59:22;;;;;;;4.25;1.60;;;23.90;95.40;;;;;;5050910;28;20049;-62